createdAt,value
2023-05-22T00:01:51.800Z,22.01
2023-05-22T00:04:21.471Z,21.97
2023-05-22T00:06:49.080Z,21.99
2023-05-22T00:09:15.820Z,21.98
2023-05-22T00:11:42.932Z,21.95
2023-05-22T00:14:09.785Z,21.89
2023-05-22T00:16:36.536Z,21.88
2023-05-22T00:19:03.764Z,21.85
2023-05-22T00:21:34.662Z,21.84
2023-05-22T00:24:02.130Z,21.85
2023-05-22T00:26:28.845Z,21.76
2023-05-22T00:28:55.949Z,21.61
2023-05-22T00:31:23.502Z,21.59
2023-05-22T00:33:50.836Z,21.64
2023-05-22T00:36:18.763Z,21.58
2023-05-22T00:38:46.235Z,21.56
2023-05-22T00:41:13.336Z,21.59
2023-05-22T00:43:40.171Z,21.55
2023-05-22T00:46:10.004Z,21.49
2023-05-22T00:48:36.820Z,21.48
2023-05-22T00:51:04.138Z,21.53
2023-05-22T00:53:31.646Z,21.48
2023-05-22T00:55:59.815Z,21.57
2023-05-22T00:58:27.418Z,21.63
2023-05-22T01:00:55.541Z,21.69
2023-05-22T01:03:26.717Z,21.79
2023-05-22T01:05:54.869Z,21.79
2023-05-22T01:08:21.927Z,21.75
2023-05-22T01:10:54.647Z,21.67
2023-05-22T01:13:26.981Z,21.56
2023-05-22T01:16:08.918Z,21.51
2023-05-22T01:18:49.271Z,21.43
2023-05-22T01:21:22.333Z,21.34
2023-05-22T01:24:21.672Z,21.27
2023-05-22T01:27:16.221Z,21.24
2023-05-22T01:30:20.533Z,21.19
2023-05-22T01:32:49.655Z,21.10
2023-05-22T01:35:19.002Z,21.02
2023-05-22T01:37:46.750Z,20.95
2023-05-22T01:40:13.787Z,20.94
2023-05-22T01:42:41.310Z,20.88
2023-05-22T01:45:10.813Z,20.83
2023-05-22T01:47:38.232Z,20.86
2023-05-22T01:50:06.467Z,20.84
2023-05-22T01:52:52.492Z,20.82
2023-05-22T01:55:29.168Z,20.80
2023-05-22T01:58:21.438Z,20.82
2023-05-22T02:00:53.852Z,20.77
2023-05-22T02:03:26.477Z,20.76
2023-05-22T02:05:55.241Z,20.55
2023-05-22T02:08:22.837Z,20.54
2023-05-22T02:10:52.205Z,20.57
2023-05-22T02:13:21.548Z,20.64
2023-05-22T02:15:49.117Z,20.74
2023-05-22T02:18:16.316Z,20.75
2023-05-22T02:20:43.615Z,20.62
2023-05-22T02:23:10.772Z,20.63
2023-05-22T02:25:37.601Z,20.67
2023-05-22T02:28:04.389Z,20.69
2023-05-22T02:30:31.268Z,20.62
2023-05-22T02:33:00.080Z,20.62
2023-05-22T02:35:26.880Z,20.68
2023-05-22T02:37:53.594Z,20.63
2023-05-22T02:40:20.327Z,20.55
2023-05-22T02:42:47.131Z,20.52
2023-05-22T02:45:14.084Z,20.51
2023-05-22T02:47:41.726Z,20.43
2023-05-22T02:50:08.932Z,20.34
2023-05-22T02:52:36.981Z,20.27
2023-05-22T02:55:04.541Z,20.29
2023-05-22T02:57:31.941Z,20.26
2023-05-22T02:59:59.252Z,20.29
2023-05-22T03:02:28.369Z,20.25
2023-05-22T03:04:55.527Z,20.19
2023-05-22T03:07:22.224Z,20.21
2023-05-22T03:09:48.901Z,20.17
2023-05-22T03:12:15.879Z,20.07
2023-05-22T03:14:42.564Z,20.03
2023-05-22T03:17:09.207Z,20.00
2023-05-22T03:19:36.160Z,20.00
2023-05-22T03:22:03.113Z,20.07
2023-05-22T03:24:30.474Z,20.01
2023-05-22T03:26:57.325Z,20.09
2023-05-22T03:29:33.305Z,20.08
2023-05-22T03:32:00.043Z,20.16
2023-05-22T03:34:27.394Z,20.21
2023-05-22T03:36:54.562Z,20.25
2023-05-22T03:39:21.474Z,20.26
2023-05-22T03:42:08.411Z,20.25
2023-05-22T03:44:35.191Z,20.25
2023-05-22T03:47:01.951Z,20.18
2023-05-22T03:49:30.779Z,20.20
2023-05-22T03:51:57.482Z,20.16
2023-05-22T03:54:24.183Z,20.20
2023-05-22T03:56:51.128Z,20.14
2023-05-22T03:59:19.208Z,20.12
2023-05-22T04:01:46.649Z,20.21
2023-05-22T04:04:13.459Z,20.16
2023-05-22T04:06:43.158Z,20.14
2023-05-22T04:09:13.243Z,20.18
2023-05-22T04:11:40.129Z,20.18
2023-05-22T04:14:06.865Z,20.17
2023-05-22T04:16:34.091Z,20.23
2023-05-22T04:19:03.778Z,20.30
2023-05-22T04:21:34.015Z,20.32
2023-05-22T04:24:07.439Z,20.36
2023-05-22T04:26:34.382Z,20.42
2023-05-22T04:29:01.219Z,20.46
2023-05-22T04:31:28.449Z,20.42
2023-05-22T04:33:55.872Z,20.23
2023-05-22T04:36:25.895Z,20.22
2023-05-22T04:38:54.032Z,20.26
2023-05-22T04:41:26.527Z,20.42
2023-05-22T04:43:54.471Z,20.53
2023-05-22T04:46:21.268Z,20.65
2023-05-22T04:48:48.295Z,20.84
2023-05-22T04:51:15.845Z,20.97
2023-05-22T04:53:42.726Z,21.15
2023-05-22T04:56:09.714Z,21.27
2023-05-22T04:58:38.144Z,21.38
2023-05-22T05:01:06.226Z,21.54
2023-05-22T05:03:34.182Z,21.72
2023-05-22T05:06:00.954Z,21.89
2023-05-22T05:08:27.786Z,22.08
2023-05-22T05:10:54.600Z,22.15
2023-05-22T05:13:21.615Z,22.42
2023-05-22T05:15:48.366Z,22.55
2023-05-22T05:18:15.369Z,22.69
2023-05-22T05:20:42.722Z,22.83
2023-05-22T05:23:10.282Z,22.96
2023-05-22T05:25:38.601Z,23.19
2023-05-22T05:28:11.595Z,23.49
2023-05-22T05:30:40.578Z,23.76
2023-05-22T05:33:27.916Z,24.05
2023-05-22T05:36:07.096Z,24.24
2023-05-22T05:38:34.985Z,24.49
2023-05-22T05:41:02.220Z,24.91
2023-05-22T05:43:29.631Z,24.93
2023-05-22T05:46:02.279Z,25.18
2023-05-22T05:48:29.068Z,25.18
2023-05-22T05:50:56.374Z,25.49
2023-05-22T05:53:23.199Z,25.85
2023-05-22T05:55:55.648Z,25.96
2023-05-22T05:58:22.899Z,26.40
2023-05-22T06:01:27.072Z,26.22
2023-05-22T06:03:54.900Z,26.04
2023-05-22T06:06:29.756Z,26.13
2023-05-22T06:09:19.644Z,26.20
2023-05-22T06:12:12.884Z,26.00
2023-05-22T06:14:42.686Z,26.14
2023-05-22T06:17:09.924Z,26.34
2023-05-22T06:19:39.041Z,26.36
2023-05-22T06:22:06.380Z,26.31
2023-05-22T06:24:33.835Z,26.45
2023-05-22T06:27:06.372Z,26.73
2023-05-22T06:29:33.230Z,26.78
2023-05-22T06:32:01.177Z,26.72
2023-05-22T06:34:29.968Z,26.79
2023-05-22T06:36:58.690Z,26.56
2023-05-22T06:39:31.160Z,26.74
2023-05-22T06:42:12.496Z,26.79
2023-05-22T06:45:08.235Z,26.71
2023-05-22T06:47:45.486Z,26.60
2023-05-22T06:50:12.370Z,26.59
2023-05-22T06:52:39.058Z,26.62
2023-05-22T06:55:07.748Z,26.69
2023-05-22T06:57:45.844Z,26.75
2023-05-22T07:00:13.105Z,26.95
2023-05-22T07:03:02.143Z,26.94
2023-05-22T07:05:33.046Z,26.99
2023-05-22T07:08:01.571Z,26.93
2023-05-22T07:10:28.946Z,27.37
2023-05-22T07:12:57.698Z,27.70
2023-05-22T07:15:24.994Z,27.89
2023-05-22T07:17:54.094Z,28.14
2023-05-22T07:20:21.254Z,28.17
2023-05-22T07:23:00.757Z,28.25
2023-05-22T07:25:27.779Z,28.39
2023-05-22T07:27:55.688Z,28.37
2023-05-22T07:30:23.640Z,28.63
2023-05-22T07:32:50.340Z,28.84
2023-05-22T07:35:18.029Z,28.93
2023-05-22T07:37:44.799Z,29.29
2023-05-22T07:40:11.821Z,29.31
2023-05-22T07:42:38.906Z,29.53
2023-05-22T07:45:07.981Z,29.57
2023-05-22T07:47:34.761Z,29.53
2023-05-22T07:50:04.283Z,29.53
2023-05-22T07:52:32.847Z,29.80
2023-05-22T07:55:00.032Z,29.89
2023-05-22T07:57:29.617Z,30.01
2023-05-22T08:00:00.176Z,30.08
2023-05-22T08:02:26.985Z,30.48
2023-05-22T08:04:53.960Z,30.62
2023-05-22T08:07:20.736Z,30.85
2023-05-22T08:09:47.417Z,30.62
2023-05-22T08:12:14.106Z,30.96
2023-05-22T08:14:41.147Z,30.77
2023-05-22T08:17:07.982Z,30.54
2023-05-22T08:19:34.880Z,30.20
2023-05-22T08:22:01.732Z,30.33
2023-05-22T08:24:30.388Z,30.44
2023-05-22T08:27:00.985Z,30.46
2023-05-22T08:29:28.672Z,30.29
2023-05-22T08:31:56.894Z,30.62
2023-05-22T08:34:24.699Z,31.18
2023-05-22T08:36:51.573Z,32.06
2023-05-22T08:39:19.156Z,32.59
2023-05-22T08:41:47.388Z,33.67
2023-05-22T08:44:14.224Z,34.35
2023-05-22T08:46:45.303Z,34.47
2023-05-22T08:49:13.153Z,34.69
2023-05-22T08:51:44.938Z,35.40
2023-05-22T08:54:11.784Z,35.94
2023-05-22T08:56:45.607Z,35.55
2023-05-22T08:59:20.833Z,35.56
2023-05-22T09:01:48.143Z,35.43
2023-05-22T09:04:15.582Z,35.97
2023-05-22T09:06:43.001Z,36.33
2023-05-22T09:09:10.451Z,36.13
2023-05-22T09:11:37.298Z,35.99
2023-05-22T09:14:08.521Z,36.07
2023-05-22T09:16:46.300Z,37.20
2023-05-22T09:19:14.885Z,37.46
2023-05-22T09:21:42.588Z,37.40
2023-05-22T09:24:10.957Z,36.74
2023-05-22T09:26:41.255Z,36.44
2023-05-22T09:29:08.689Z,35.93
2023-05-22T09:31:41.909Z,35.67
2023-05-22T09:34:14.321Z,35.82
2023-05-22T09:36:42.390Z,35.68
2023-05-22T09:39:09.569Z,35.47
2023-05-22T09:41:38.748Z,35.31
2023-05-22T09:44:15.951Z,35.61
2023-05-22T09:46:46.360Z,35.49
2023-05-22T09:49:16.160Z,35.77
2023-05-22T09:51:47.538Z,36.10
2023-05-22T09:54:16.136Z,36.33
2023-05-22T09:56:44.247Z,36.69
2023-05-22T09:59:13.871Z,36.96
2023-05-22T10:01:42.562Z,37.21
2023-05-22T10:04:14.157Z,38.05
2023-05-22T10:06:42.928Z,37.92
2023-05-22T10:09:18.854Z,39.47
2023-05-22T10:11:47.378Z,39.71
2023-05-22T10:14:15.049Z,40.26
2023-05-22T10:16:44.938Z,41.42
2023-05-22T10:19:12.788Z,42.38
2023-05-22T10:21:41.755Z,41.56
2023-05-22T10:24:10.163Z,42.40
2023-05-22T10:26:38.641Z,43.32
2023-05-22T10:29:16.200Z,43.65
2023-05-22T10:31:52.909Z,43.49
2023-05-22T10:34:38.305Z,42.90
2023-05-22T10:37:18.058Z,43.33
2023-05-22T10:40:12.059Z,43.70
2023-05-22T10:42:39.245Z,43.78
2023-05-22T10:45:10.605Z,42.97
2023-05-22T10:47:37.737Z,43.66
2023-05-22T10:50:07.897Z,44.11
2023-05-22T10:52:36.039Z,44.21
2023-05-22T10:55:07.071Z,44.73
2023-05-22T10:57:34.656Z,44.71
2023-05-22T11:00:15.932Z,45.06
2023-05-22T11:02:45.932Z,45.30
2023-05-22T11:05:18.615Z,45.96
2023-05-22T11:07:45.397Z,46.17
2023-05-22T11:10:12.232Z,46.11
2023-05-22T11:12:38.939Z,45.26
2023-05-22T11:15:10.693Z,45.62
2023-05-22T11:17:51.323Z,46.48
2023-05-22T11:20:18.378Z,46.97
2023-05-22T11:23:00.435Z,46.24
2023-05-22T11:25:28.561Z,46.98
2023-05-22T11:27:56.165Z,47.88
2023-05-22T11:30:27.890Z,47.66
2023-05-22T11:32:54.748Z,47.03
2023-05-22T11:35:22.343Z,47.68
2023-05-22T11:37:50.810Z,47.28
2023-05-22T11:40:21.176Z,46.79
2023-05-22T11:42:48.164Z,47.36
2023-05-22T11:45:14.883Z,45.23
2023-05-22T11:47:43.679Z,44.40
2023-05-22T11:50:12.591Z,43.12
2023-05-22T11:52:41.893Z,41.22
2023-05-22T11:55:10.009Z,39.32
2023-05-22T11:57:38.201Z,38.51
2023-05-22T12:00:08.298Z,37.81
2023-05-22T12:02:50.248Z,38.60
2023-05-22T12:05:17.126Z,39.72
2023-05-22T12:07:44.237Z,39.67
2023-05-22T12:10:11.520Z,38.84
2023-05-22T12:12:38.880Z,37.74
2023-05-22T12:15:07.080Z,36.78
2023-05-22T12:17:37.481Z,35.73
2023-05-22T12:20:05.448Z,35.14
2023-05-22T12:22:32.223Z,34.59
2023-05-22T12:24:58.944Z,34.78
2023-05-22T12:27:32.945Z,34.78
2023-05-22T12:29:59.890Z,35.32
2023-05-22T12:32:29.653Z,36.20
2023-05-22T12:34:58.210Z,36.48
2023-05-22T12:37:28.361Z,36.12
2023-05-22T12:39:56.868Z,35.68
2023-05-22T12:42:27.606Z,35.22
2023-05-22T12:44:55.421Z,34.45
2023-05-22T12:47:23.637Z,33.75
2023-05-22T12:49:51.205Z,33.18
2023-05-22T12:52:17.996Z,33.17
2023-05-22T12:54:44.782Z,32.88
2023-05-22T12:57:11.592Z,33.13
2023-05-22T12:59:38.292Z,33.12
2023-05-22T13:02:05.537Z,32.97
2023-05-22T13:04:32.471Z,32.74
2023-05-22T13:06:59.318Z,32.60
2023-05-22T13:09:26.220Z,32.57
2023-05-22T13:11:53.042Z,32.19
2023-05-22T13:14:19.831Z,32.41
2023-05-22T13:16:46.791Z,32.67
2023-05-22T13:19:13.611Z,33.14
2023-05-22T13:21:40.304Z,33.45
2023-05-22T13:24:07.089Z,33.77
2023-05-22T13:26:33.797Z,33.72
2023-05-22T13:29:00.520Z,33.95
2023-05-22T13:31:27.236Z,34.21
2023-05-22T13:33:54.320Z,34.18
2023-05-22T13:36:21.206Z,33.70
2023-05-22T13:38:47.982Z,34.07
2023-05-22T13:41:15.528Z,34.20
2023-05-22T13:43:42.245Z,34.54
2023-05-22T13:46:08.997Z,34.42
2023-05-22T13:48:35.728Z,34.50
2023-05-22T13:51:03.054Z,34.21
2023-05-22T13:53:29.792Z,33.83
2023-05-22T13:55:56.486Z,33.60
2023-05-22T13:58:23.168Z,33.91
2023-05-22T14:00:50.005Z,33.96
2023-05-22T14:03:18.472Z,33.71
2023-05-22T14:05:45.539Z,33.81
2023-05-22T14:08:13.382Z,33.89
2023-05-22T14:10:40.405Z,34.14
2023-05-22T14:13:08.609Z,34.33
2023-05-22T14:15:35.671Z,34.69
2023-05-22T14:18:02.494Z,34.64
2023-05-22T14:20:29.259Z,34.42
2023-05-22T14:22:58.231Z,33.96
2023-05-22T14:25:28.319Z,34.18
2023-05-22T14:27:55.073Z,34.20
2023-05-22T14:30:21.862Z,34.39
2023-05-22T14:32:48.844Z,34.78
2023-05-22T14:35:16.679Z,35.14
2023-05-22T14:37:43.932Z,34.87
2023-05-22T14:40:10.885Z,34.59
2023-05-22T14:42:37.705Z,34.39
2023-05-22T14:45:04.818Z,33.87
2023-05-22T14:47:31.503Z,33.55
2023-05-22T14:50:06.773Z,33.62
2023-05-22T14:52:44.900Z,33.37
2023-05-22T14:55:11.588Z,33.19
2023-05-22T14:57:38.254Z,33.07
2023-05-22T15:00:12.364Z,32.93
2023-05-22T15:02:39.675Z,32.68
2023-05-22T15:05:07.214Z,32.61
2023-05-22T15:10:05.327Z,32.60
2023-05-22T15:12:32.419Z,32.76
2023-05-22T15:14:59.139Z,32.92
2023-05-22T15:17:26.007Z,32.68
2023-05-22T15:19:52.799Z,32.33
2023-05-22T15:22:20.226Z,32.20
2023-05-22T15:24:48.114Z,31.53
2023-05-22T15:27:14.836Z,30.77
2023-05-22T15:29:41.853Z,30.56
2023-05-22T15:32:09.066Z,29.92
2023-05-22T15:34:35.804Z,29.76
2023-05-22T15:37:02.463Z,29.44
2023-05-22T15:39:29.592Z,28.82
2023-05-22T15:42:05.855Z,28.14
2023-05-22T15:44:33.735Z,27.68
2023-05-22T15:47:00.564Z,27.47
2023-05-22T15:49:30.227Z,27.30
2023-05-22T15:51:58.609Z,27.28
2023-05-22T15:54:25.399Z,27.12
2023-05-22T15:56:52.090Z,27.28
2023-05-22T15:59:18.826Z,27.36
2023-05-22T16:01:45.750Z,27.09
2023-05-22T16:04:12.537Z,26.86
2023-05-22T16:06:39.288Z,26.67
2023-05-22T16:09:06.163Z,26.49
2023-05-22T16:11:33.555Z,26.41
2023-05-22T16:14:00.342Z,26.55
2023-05-22T16:16:27.248Z,26.56
2023-05-22T16:18:54.086Z,26.72
2023-05-22T16:21:20.886Z,26.92
2023-05-22T16:23:47.752Z,27.02
2023-05-22T16:26:14.912Z,27.16
2023-05-22T16:28:41.623Z,27.22
2023-05-22T16:31:19.325Z,27.11
2023-05-22T16:33:46.310Z,26.96
2023-05-22T16:36:13.175Z,27.34
2023-05-22T16:38:39.870Z,27.40
2023-05-22T16:41:06.628Z,27.55
2023-05-22T16:43:33.309Z,27.69
2023-05-22T16:46:00.131Z,28.04
2023-05-22T16:48:26.967Z,28.26
2023-05-22T16:50:53.713Z,28.44
2023-05-22T16:53:20.642Z,28.57
2023-05-22T16:55:47.377Z,28.82
2023-05-22T16:58:14.111Z,28.91
2023-05-22T17:00:41.376Z,29.08
2023-05-22T17:03:09.295Z,28.95
2023-05-22T17:05:37.780Z,29.11
2023-05-22T17:08:04.693Z,29.03
2023-05-22T17:10:31.345Z,29.17
2023-05-22T17:12:58.046Z,29.24
2023-05-22T17:15:24.742Z,29.06
2023-05-22T17:17:51.531Z,28.77
2023-05-22T17:20:18.909Z,28.58
2023-05-22T17:22:45.668Z,28.48
2023-05-22T17:25:13.266Z,28.39
2023-05-22T17:27:40.076Z,28.58
2023-05-22T17:30:07.919Z,28.78
2023-05-22T17:32:35.064Z,28.77
2023-05-22T17:35:02.241Z,28.71
2023-05-22T17:37:29.008Z,28.52
2023-05-22T17:39:55.704Z,28.54
2023-05-22T17:42:22.807Z,28.65
2023-05-22T17:44:49.579Z,28.53
2023-05-22T17:47:16.295Z,28.63
2023-05-22T17:49:42.982Z,28.59
2023-05-22T17:52:10.090Z,28.50
2023-05-22T17:54:36.795Z,28.45
2023-05-22T17:57:04.117Z,28.40
2023-05-22T17:59:32.620Z,28.31
2023-05-22T18:01:59.476Z,28.37
2023-05-22T18:04:26.331Z,28.29
2023-05-22T18:06:53.074Z,28.25
2023-05-22T18:09:19.843Z,28.30
2023-05-22T18:11:46.539Z,28.40
2023-05-22T18:14:13.268Z,28.36
2023-05-22T18:16:39.982Z,28.36
2023-05-22T18:19:06.824Z,28.36
2023-05-22T18:21:33.580Z,28.03
2023-05-22T18:24:00.382Z,27.82
2023-05-22T18:26:27.112Z,27.60
2023-05-22T18:28:53.892Z,27.35
2023-05-22T18:31:20.672Z,27.25
2023-05-22T18:33:47.729Z,27.22
2023-05-22T18:36:14.589Z,27.15
2023-05-22T18:38:41.548Z,27.21
2023-05-22T18:41:08.309Z,27.26
2023-05-22T18:43:35.139Z,27.01
2023-05-22T18:46:01.856Z,27.00
2023-05-22T18:48:29.862Z,26.82
2023-05-22T18:50:57.721Z,26.72
2023-05-22T18:53:25.359Z,26.49
2023-05-22T18:55:53.716Z,26.28
2023-05-22T18:58:20.532Z,26.28
2023-05-22T19:00:47.258Z,26.03
2023-05-22T19:03:14.280Z,26.01
2023-05-22T19:05:41.127Z,25.90
2023-05-22T19:08:07.962Z,25.76
2023-05-22T19:10:34.697Z,25.65
2023-05-22T19:13:01.414Z,25.67
2023-05-22T19:15:28.196Z,25.66
2023-05-22T19:17:54.966Z,25.67
2023-05-22T19:20:22.862Z,25.61
2023-05-22T19:22:50.950Z,25.62
2023-05-22T19:25:18.293Z,25.57
2023-05-22T19:27:45.822Z,25.60
2023-05-22T19:30:15.076Z,25.58
2023-05-22T19:32:45.233Z,25.53
2023-05-22T19:35:12.120Z,25.46
2023-05-22T19:37:38.880Z,25.36
2023-05-22T19:40:07.012Z,25.21
2023-05-22T19:42:34.318Z,25.09
2023-05-22T19:45:02.580Z,25.01
2023-05-22T19:47:29.376Z,24.95
2023-05-22T19:49:56.151Z,24.89
2023-05-22T19:52:23.033Z,24.91
2023-05-22T19:54:49.698Z,24.92
2023-05-22T19:57:16.343Z,24.88
2023-05-22T19:59:43.044Z,24.83
2023-05-22T20:02:09.762Z,24.81
2023-05-22T20:04:39.410Z,24.79
2023-05-22T20:07:12.165Z,24.79
2023-05-22T20:09:39.042Z,24.68
2023-05-22T20:12:07.020Z,24.58
2023-05-22T20:14:33.994Z,24.53
2023-05-22T20:17:02.661Z,24.45
2023-05-22T20:19:29.906Z,24.34
2023-05-22T20:21:58.196Z,24.22
2023-05-22T20:24:27.483Z,24.10
2023-05-22T20:26:54.181Z,24.09
2023-05-22T20:29:20.867Z,24.16
2023-05-22T20:31:47.714Z,24.05
2023-05-22T20:34:14.452Z,23.95
2023-05-22T20:36:42.599Z,23.83
2023-05-22T20:39:10.775Z,23.71
2023-05-22T20:41:38.410Z,23.67
2023-05-22T20:44:05.178Z,23.60
2023-05-22T20:46:34.584Z,23.61
2023-05-22T20:49:02.840Z,23.51
2023-05-22T20:51:32.436Z,23.44
2023-05-22T20:53:59.867Z,23.36
2023-05-22T20:56:27.015Z,23.30
2023-05-22T20:58:54.717Z,23.27
2023-05-22T21:01:22.051Z,23.19
2023-05-22T21:03:51.347Z,23.27
2023-05-22T21:06:18.813Z,23.29
2023-05-22T21:08:45.473Z,23.27
2023-05-22T21:11:12.235Z,23.24
2023-05-22T21:13:38.979Z,23.18
2023-05-22T21:16:06.058Z,23.10
2023-05-22T21:18:32.727Z,23.02
2023-05-22T21:20:59.629Z,22.97
2023-05-22T21:23:26.656Z,22.79
2023-05-22T21:25:53.608Z,22.77
2023-05-22T21:28:20.500Z,22.77
2023-05-22T21:30:47.430Z,22.69
2023-05-22T21:33:14.292Z,22.69
2023-05-22T21:35:40.946Z,22.70
2023-05-22T21:38:07.644Z,22.73
2023-05-22T21:40:34.367Z,22.66
2023-05-22T21:43:01.064Z,22.62
2023-05-22T21:45:27.725Z,22.62
2023-05-22T21:47:54.471Z,22.54
2023-05-22T21:50:21.304Z,22.59
2023-05-22T21:52:48.047Z,22.58
2023-05-22T21:55:14.824Z,22.57
2023-05-22T21:57:41.442Z,22.50
2023-05-22T22:00:08.802Z,22.46
2023-05-22T22:02:35.491Z,22.37
2023-05-22T22:05:02.189Z,22.32
2023-05-22T22:07:28.874Z,22.25
2023-05-22T22:09:55.605Z,22.23
2023-05-22T22:12:22.257Z,22.21
2023-05-22T22:14:48.965Z,22.19
2023-05-22T22:17:16.797Z,22.20
2023-05-22T22:19:44.446Z,22.17
2023-05-22T22:22:12.481Z,22.26
2023-05-22T22:24:39.223Z,22.36
2023-05-22T22:27:06.313Z,22.40
2023-05-22T22:29:33.120Z,22.42
2023-05-22T22:31:59.790Z,22.38
2023-05-22T22:34:26.512Z,22.30
2023-05-22T22:36:53.825Z,22.19
2023-05-22T22:39:20.481Z,22.22
2023-05-22T22:41:47.138Z,22.07
2023-05-22T22:44:13.793Z,21.98
2023-05-22T22:46:40.588Z,21.98
2023-05-22T22:49:08.675Z,21.92
2023-05-22T22:51:35.487Z,21.88
2023-05-22T22:54:02.253Z,21.89
2023-05-22T22:56:29.466Z,21.87
2023-05-22T22:58:57.130Z,21.92
2023-05-22T23:01:24.106Z,22.00
2023-05-22T23:03:51.508Z,21.98
2023-05-22T23:06:18.428Z,21.95
2023-05-22T23:08:45.681Z,21.93
2023-05-22T23:11:12.501Z,21.90
2023-05-22T23:13:41.059Z,21.86
2023-05-22T23:16:08.091Z,21.85
2023-05-22T23:18:35.323Z,21.80
2023-05-22T23:21:02.017Z,21.85
2023-05-22T23:23:28.779Z,21.77
2023-05-22T23:25:57.995Z,21.73
2023-05-22T23:28:25.727Z,21.70
2023-05-22T23:30:52.888Z,21.67
2023-05-22T23:33:19.763Z,21.60
2023-05-22T23:35:46.609Z,21.58
2023-05-22T23:38:13.287Z,21.60
2023-05-22T23:40:39.971Z,21.59
2023-05-22T23:43:06.658Z,21.60
2023-05-22T23:45:33.294Z,21.55
2023-05-22T23:47:59.987Z,21.50
2023-05-22T23:50:26.751Z,21.47
2023-05-22T23:52:54.007Z,21.48
2023-05-22T23:55:20.842Z,21.46
2023-05-22T23:57:47.528Z,21.43
